sensor_id;sensor_type;location;lat;lon;timestamp;temperature;humidity
38854;DHT22;24606;51.992;4.198;2023-03-01T00:03:08;17.80;57.30
38854;DHT22;24606;51.992;4.198;2023-03-01T00:08:10;17.70;57.30
38854;DHT22;24606;51.992;4.198;2023-03-01T00:13:12;17.60;57.00
38854;DHT22;24606;51.992;4.198;2023-03-01T00:18:15;17.60;57.00
38854;DHT22;24606;51.992;4.198;2023-03-01T00:23:17;17.50;57.30
38854;DHT22;24606;51.992;4.198;2023-03-01T00:28:19;17.60;57.80
38854;DHT22;24606;51.992;4.198;2023-03-01T00:33:22;17.40;57.10
38854;DHT22;24606;51.992;4.198;2023-03-01T00:38:24;17.50;57.20
38854;DHT22;24606;51.992;4.198;2023-03-01T00:43:26;17.30;57.20
38854;DHT22;24606;51.992;4.198;2023-03-01T00:48:29;17.30;57.70
38854;DHT22;24606;51.992;4.198;2023-03-01T00:53:31;17.30;57.20
38854;DHT22;24606;51.992;4.198;2023-03-01T00:58:34;17.20;57.70
38854;DHT22;24606;51.992;4.198;2023-03-01T01:03:38;17.20;57.60
38854;DHT22;24606;51.992;4.198;2023-03-01T01:08:39;17.00;57.50
38854;DHT22;24606;51.992;4.198;2023-03-01T01:13:43;17.00;58.10
38854;DHT22;24606;51.992;4.198;2023-03-01T01:18:46;17.00;58.40
38854;DHT22;24606;51.992;4.198;2023-03-01T01:23:49;17.00;57.70
38854;DHT22;24606;51.992;4.198;2023-03-01T01:28:51;17.00;57.70
38854;DHT22;24606;51.992;4.198;2023-03-01T01:33:55;16.90;58.10
38854;DHT22;24606;51.992;4.198;2023-03-01T01:38:57;16.90;57.80
38854;DHT22;24606;51.992;4.198;2023-03-01T01:44:15;16.90;58.50
38854;DHT22;24606;51.992;4.198;2023-03-01T01:49:25;16.90;57.70
38854;DHT22;24606;51.992;4.198;2023-03-01T01:54:33;16.80;58.10
38854;DHT22;24606;51.992;4.198;2023-03-01T01:59:37;16.70;58.40
38854;DHT22;24606;51.992;4.198;2023-03-01T02:04:41;16.70;57.90
38854;DHT22;24606;51.992;4.198;2023-03-01T02:09:46;16.50;57.30
38854;DHT22;24606;51.992;4.198;2023-03-01T02:14:48;16.50;58.40
38854;DHT22;24606;51.992;4.198;2023-03-01T02:20:04;16.50;58.80
38854;DHT22;24606;51.992;4.198;2023-03-01T02:25:19;16.60;58.30
38854;DHT22;24606;51.992;4.198;2023-03-01T02:30:24;16.50;58.20
38854;DHT22;24606;51.992;4.198;2023-03-01T02:35:26;16.60;58.60
38854;DHT22;24606;51.992;4.198;2023-03-01T02:40:29;16.50;58.60
38854;DHT22;24606;51.992;4.198;2023-03-01T02:45:33;16.50;58.20
38854;DHT22;24606;51.992;4.198;2023-03-01T02:50:56;16.50;58.40
38854;DHT22;24606;51.992;4.198;2023-03-01T02:56:01;16.30;58.80
38854;DHT22;24606;51.992;4.198;2023-03-01T03:01:04;16.30;59.10
38854;DHT22;24606;51.992;4.198;2023-03-01T03:06:06;16.50;58.00
38854;DHT22;24606;51.992;4.198;2023-03-01T03:11:08;16.20;58.30
38854;DHT22;24606;51.992;4.198;2023-03-01T03:16:12;16.10;58.30
38854;DHT22;24606;51.992;4.198;2023-03-01T03:21:14;16.10;58.00
38854;DHT22;24606;51.992;4.198;2023-03-01T03:26:16;16.10;59.00
38854;DHT22;24606;51.992;4.198;2023-03-01T03:31:20;16.00;58.20
38854;DHT22;24606;51.992;4.198;2023-03-01T03:36:24;16.00;59.00
38854;DHT22;24606;51.992;4.198;2023-03-01T03:41:26;16.10;59.20
38854;DHT22;24606;51.992;4.198;2023-03-01T03:46:29;16.10;59.60
38854;DHT22;24606;51.992;4.198;2023-03-01T03:51:31;16.00;59.00
38854;DHT22;24606;51.992;4.198;2023-03-01T03:56:33;16.00;58.90
38854;DHT22;24606;51.992;4.198;2023-03-01T04:01:36;16.00;58.70
38854;DHT22;24606;51.992;4.198;2023-03-01T04:06:38;15.90;58.80
38854;DHT22;24606;51.992;4.198;2023-03-01T04:11:40;15.80;58.80
38854;DHT22;24606;51.992;4.198;2023-03-01T04:16:43;15.80;59.00
38854;DHT22;24606;51.992;4.198;2023-03-01T04:21:45;15.80;59.30
38854;DHT22;24606;51.992;4.198;2023-03-01T04:26:47;15.80;59.30
38854;DHT22;24606;51.992;4.198;2023-03-01T04:31:50;15.80;59.30
38854;DHT22;24606;51.992;4.198;2023-03-01T04:36:52;15.70;59.30
38854;DHT22;24606;51.992;4.198;2023-03-01T04:41:54;15.70;58.70
38854;DHT22;24606;51.992;4.198;2023-03-01T04:46:57;15.90;59.20
38854;DHT22;24606;51.992;4.198;2023-03-01T04:51:59;16.30;58.20
38854;DHT22;24606;51.992;4.198;2023-03-01T04:57:03;16.70;57.40
38854;DHT22;24606;51.992;4.198;2023-03-01T05:02:06;16.80;57.10
38854;DHT22;24606;51.992;4.198;2023-03-01T05:07:08;16.90;56.90
38854;DHT22;24606;51.992;4.198;2023-03-01T05:12:09;16.90;56.70
38854;DHT22;24606;51.992;4.198;2023-03-01T05:17:13;17.10;56.60
38854;DHT22;24606;51.992;4.198;2023-03-01T05:22:15;17.20;56.40
38854;DHT22;24606;51.992;4.198;2023-03-01T05:27:17;17.20;56.40
38854;DHT22;24606;51.992;4.198;2023-03-01T05:32:20;17.20;56.30
38854;DHT22;24606;51.992;4.198;2023-03-01T05:37:22;17.30;56.30
38854;DHT22;24606;51.992;4.198;2023-03-01T05:42:24;17.30;56.50
38854;DHT22;24606;51.992;4.198;2023-03-01T05:47:27;17.30;56.50
38854;DHT22;24606;51.992;4.198;2023-03-01T05:52:29;17.20;56.60
38854;DHT22;24606;51.992;4.198;2023-03-01T05:57:31;17.20;56.70
38854;DHT22;24606;51.992;4.198;2023-03-01T06:02:34;17.20;57.50
38854;DHT22;24606;51.992;4.198;2023-03-01T06:07:37;17.20;56.90
38854;DHT22;24606;51.992;4.198;2023-03-01T06:12:40;17.10;57.10
38854;DHT22;24606;51.992;4.198;2023-03-01T06:17:45;17.00;57.10
38854;DHT22;24606;51.992;4.198;2023-03-01T06:22:48;17.10;56.90
38854;DHT22;24606;51.992;4.198;2023-03-01T06:27:50;17.10;57.00
38854;DHT22;24606;51.992;4.198;2023-03-01T06:32:54;17.10;57.00
38854;DHT22;24606;51.992;4.198;2023-03-01T06:38:03;17.00;57.10
38854;DHT22;24606;51.992;4.198;2023-03-01T06:43:05;17.10;57.00
38854;DHT22;24606;51.992;4.198;2023-03-01T06:48:09;17.10;57.00
38854;DHT22;24606;51.992;4.198;2023-03-01T06:53:11;17.10;57.00
38854;DHT22;24606;51.992;4.198;2023-03-01T06:58:13;17.10;57.00
38854;DHT22;24606;51.992;4.198;2023-03-01T07:15:23;17.10;56.30
38854;DHT22;24606;51.992;4.198;2023-03-01T07:20:25;17.10;56.90
38854;DHT22;24606;51.992;4.198;2023-03-01T07:25:27;17.10;56.90
38854;DHT22;24606;51.992;4.198;2023-03-01T07:30:31;17.20;56.90
38854;DHT22;24606;51.992;4.198;2023-03-01T07:35:32;17.10;57.00
38854;DHT22;24606;51.992;4.198;2023-03-01T07:40:35;17.10;56.90
38854;DHT22;24606;51.992;4.198;2023-03-01T07:45:38;17.10;57.00
38854;DHT22;24606;51.992;4.198;2023-03-01T07:50:40;17.00;57.20
38854;DHT22;24606;51.992;4.198;2023-03-01T07:55:42;17.00;57.20
38854;DHT22;24606;51.992;4.198;2023-03-01T08:00:45;16.90;57.40
38854;DHT22;24606;51.992;4.198;2023-03-01T08:05:47;16.90;57.60
38854;DHT22;24606;51.992;4.198;2023-03-01T08:10:49;16.80;57.70
38854;DHT22;24606;51.992;4.198;2023-03-01T08:15:52;16.80;57.80
38854;DHT22;24606;51.992;4.198;2023-03-01T08:20:54;16.80;57.90
38854;DHT22;24606;51.992;4.198;2023-03-01T08:26:03;16.70;58.10
38854;DHT22;24606;51.992;4.198;2023-03-01T08:31:15;16.70;58.00
38854;DHT22;24606;51.992;4.198;2023-03-01T08:36:18;16.60;58.20
38854;DHT22;24606;51.992;4.198;2023-03-01T08:41:21;16.70;58.20
38854;DHT22;24606;51.992;4.198;2023-03-01T08:46:25;16.70;58.20
38854;DHT22;24606;51.992;4.198;2023-03-01T08:51:27;16.70;58.20
38854;DHT22;24606;51.992;4.198;2023-03-01T08:56:29;16.70;58.10
38854;DHT22;24606;51.992;4.198;2023-03-01T09:01:33;16.70;57.40
38854;DHT22;24606;51.992;4.198;2023-03-01T09:06:35;16.00;59.40
38854;DHT22;24606;51.992;4.198;2023-03-01T09:11:37;16.20;58.90
38854;DHT22;24606;51.992;4.198;2023-03-01T09:16:40;16.70;58.10
38854;DHT22;24606;51.992;4.198;2023-03-01T09:21:42;16.40;58.70
38854;DHT22;24606;51.992;4.198;2023-03-01T09:26:56;16.30;58.90
38854;DHT22;24606;51.992;4.198;2023-03-01T09:31:59;16.40;58.50
38854;DHT22;24606;51.992;4.198;2023-03-01T09:37:01;16.40;58.20
38854;DHT22;24606;51.992;4.198;2023-03-01T09:42:03;16.70;57.80
38854;DHT22;24606;51.992;4.198;2023-03-01T09:47:10;16.60;57.90
38854;DHT22;24606;51.992;4.198;2023-03-01T09:52:23;16.80;57.60
38854;DHT22;24606;51.992;4.198;2023-03-01T09:57:30;16.70;58.00
38854;DHT22;24606;51.992;4.198;2023-03-01T10:02:41;16.70;57.60
38854;DHT22;24606;51.992;4.198;2023-03-01T10:07:48;16.80;57.40
38854;DHT22;24606;51.992;4.198;2023-03-01T10:12:56;16.80;57.20
38854;DHT22;24606;51.992;4.198;2023-03-01T10:18:02;16.80;57.20
38854;DHT22;24606;51.992;4.198;2023-03-01T10:23:08;16.90;57.00
38854;DHT22;24606;51.992;4.198;2023-03-01T10:28:16;16.90;56.50
38854;DHT22;24606;51.992;4.198;2023-03-01T10:33:23;16.90;56.80
38854;DHT22;24606;51.992;4.198;2023-03-01T10:38:26;16.90;56.50
38854;DHT22;24606;51.992;4.198;2023-03-01T10:43:40;17.00;56.60
38854;DHT22;24606;51.992;4.198;2023-03-01T10:48:46;16.70;57.10
38854;DHT22;24606;51.992;4.198;2023-03-01T10:54:16;16.80;57.00
38854;DHT22;24606;51.992;4.198;2023-03-01T10:59:27;16.80;56.80
38854;DHT22;24606;51.992;4.198;2023-03-01T11:04:31;17.00;56.40
38854;DHT22;24606;51.992;4.198;2023-03-01T11:09:33;16.90;56.30
38854;DHT22;24606;51.992;4.198;2023-03-01T11:14:38;16.90;56.40
38854;DHT22;24606;51.992;4.198;2023-03-01T11:20:00;17.00;56.00
38854;DHT22;24606;51.992;4.198;2023-03-01T11:25:05;16.60;56.70
38854;DHT22;24606;51.992;4.198;2023-03-01T11:30:18;16.90;56.10
38854;DHT22;24606;51.992;4.198;2023-03-01T11:35:24;16.80;56.70
38854;DHT22;24606;51.992;4.198;2023-03-01T11:40:31;17.00;55.90
38854;DHT22;24606;51.992;4.198;2023-03-01T11:45:43;17.00;55.70
38854;DHT22;24606;51.992;4.198;2023-03-01T11:50:49;17.00;55.60
38854;DHT22;24606;51.992;4.198;2023-03-01T11:56:02;17.10;55.70
38854;DHT22;24606;51.992;4.198;2023-03-01T12:01:28;17.20;55.20
38854;DHT22;24606;51.992;4.198;2023-03-01T12:06:48;17.20;55.10
38854;DHT22;24606;51.992;4.198;2023-03-01T12:23:03;17.10;55.70
38854;DHT22;24606;51.992;4.198;2023-03-01T12:28:27;17.10;55.60
38854;DHT22;24606;51.992;4.198;2023-03-01T12:33:42;16.40;57.60
38854;DHT22;24606;51.992;4.198;2023-03-01T12:38:49;16.70;56.80
38854;DHT22;24606;51.992;4.198;2023-03-01T12:44:01;16.30;57.60
38854;DHT22;24606;51.992;4.198;2023-03-01T12:49:08;16.70;56.90
38854;DHT22;24606;51.992;4.198;2023-03-01T12:54:16;16.60;57.00
38854;DHT22;24606;51.992;4.198;2023-03-01T12:59:26;17.00;56.20
38854;DHT22;24606;51.992;4.198;2023-03-01T13:04:38;16.70;57.00
38854;DHT22;24606;51.992;4.198;2023-03-01T13:09:48;17.00;56.30
38854;DHT22;24606;51.992;4.198;2023-03-01T13:14:54;17.20;55.60
38854;DHT22;24606;51.992;4.198;2023-03-01T13:19:57;17.00;55.40
38854;DHT22;24606;51.992;4.198;2023-03-01T13:25:14;17.40;54.70
38854;DHT22;24606;51.992;4.198;2023-03-01T13:30:49;17.30;55.00
38854;DHT22;24606;51.992;4.198;2023-03-01T13:35:51;17.00;56.30
38854;DHT22;24606;51.992;4.198;2023-03-01T13:40:59;16.90;56.80
38854;DHT22;24606;51.992;4.198;2023-03-01T13:46:07;17.10;55.80
38854;DHT22;24606;51.992;4.198;2023-03-01T13:51:10;17.30;55.20
38854;DHT22;24606;51.992;4.198;2023-03-01T13:56:17;17.70;54.40
38854;DHT22;24606;51.992;4.198;2023-03-01T14:01:24;18.00;53.80
38854;DHT22;24606;51.992;4.198;2023-03-01T14:06:28;17.80;54.90
38854;DHT22;24606;51.992;4.198;2023-03-01T14:12:10;18.20;54.00
38854;DHT22;24606;51.992;4.198;2023-03-01T14:17:31;18.50;53.70
38854;DHT22;24606;51.992;4.198;2023-03-01T14:22:37;18.70;53.40
38854;DHT22;24606;51.992;4.198;2023-03-01T14:27:43;18.90;53.10
38854;DHT22;24606;51.992;4.198;2023-03-01T14:32:52;19.00;53.10
38854;DHT22;24606;51.992;4.198;2023-03-01T14:37:54;19.30;53.40
38854;DHT22;24606;51.992;4.198;2023-03-01T14:42:59;19.30;53.30
38854;DHT22;24606;51.992;4.198;2023-03-01T14:48:04;19.40;53.20
38854;DHT22;24606;51.992;4.198;2023-03-01T14:53:15;19.50;53.40
38854;DHT22;24606;51.992;4.198;2023-03-01T14:58:21;19.60;53.30
38854;DHT22;24606;51.992;4.198;2023-03-01T15:03:29;19.70;53.40
38854;DHT22;24606;51.992;4.198;2023-03-01T15:08:33;19.80;53.30
38854;DHT22;24606;51.992;4.198;2023-03-01T15:13:38;19.90;53.30
38854;DHT22;24606;51.992;4.198;2023-03-01T15:18:43;20.00;53.30
38854;DHT22;24606;51.992;4.198;2023-03-01T15:23:51;20.00;54.00
38854;DHT22;24606;51.992;4.198;2023-03-01T15:28:57;19.90;55.30
38854;DHT22;24606;51.992;4.198;2023-03-01T15:34:19;20.00;55.10
38854;DHT22;24606;51.992;4.198;2023-03-01T15:39:36;20.10;55.00
38854;DHT22;24606;51.992;4.198;2023-03-01T15:44:44;20.20;55.00
38854;DHT22;24606;51.992;4.198;2023-03-01T15:49:46;20.20;55.10
38854;DHT22;24606;51.992;4.198;2023-03-01T15:54:48;20.40;54.80
38854;DHT22;24606;51.992;4.198;2023-03-01T15:59:52;20.40;54.20
38854;DHT22;24606;51.992;4.198;2023-03-01T16:04:54;20.50;54.00
38854;DHT22;24606;51.992;4.198;2023-03-01T16:09:57;20.50;53.70
38854;DHT22;24606;51.992;4.198;2023-03-01T16:15:00;20.60;53.50
38854;DHT22;24606;51.992;4.198;2023-03-01T16:20:03;20.80;52.90
38854;DHT22;24606;51.992;4.198;2023-03-01T16:25:07;20.90;52.50
38854;DHT22;24606;51.992;4.198;2023-03-01T16:30:12;20.90;52.20
38854;DHT22;24606;51.992;4.198;2023-03-01T16:35:17;21.00;51.90
38854;DHT22;24606;51.992;4.198;2023-03-01T16:40:21;21.10;51.80
38854;DHT22;24606;51.992;4.198;2023-03-01T16:45:25;21.30;51.10
38854;DHT22;24606;51.992;4.198;2023-03-01T16:50:28;21.30;50.80
38854;DHT22;24606;51.992;4.198;2023-03-01T16:55:30;21.30;50.60
38854;DHT22;24606;51.992;4.198;2023-03-01T17:00:33;21.40;50.40
38854;DHT22;24606;51.992;4.198;2023-03-01T17:05:39;21.40;50.20
38854;DHT22;24606;51.992;4.198;2023-03-01T17:10:41;21.30;50.60
38854;DHT22;24606;51.992;4.198;2023-03-01T17:15:45;21.40;50.40
38854;DHT22;24606;51.992;4.198;2023-03-01T17:20:47;21.40;50.30
38854;DHT22;24606;51.992;4.198;2023-03-01T17:25:48;21.40;50.30
38854;DHT22;24606;51.992;4.198;2023-03-01T17:30:52;21.30;50.60
38854;DHT22;24606;51.992;4.198;2023-03-01T17:35:55;21.10;50.90
38854;DHT22;24606;51.992;4.198;2023-03-01T17:40:58;21.30;51.10
38854;DHT22;24606;51.992;4.198;2023-03-01T17:46:03;21.00;52.40
38854;DHT22;24606;51.992;4.198;2023-03-01T17:51:06;21.00;52.50
38854;DHT22;24606;51.992;4.198;2023-03-01T17:56:08;21.00;52.70
38854;DHT22;24606;51.992;4.198;2023-03-01T18:01:14;20.90;52.60
38854;DHT22;24606;51.992;4.198;2023-03-01T18:06:18;20.80;53.00
38854;DHT22;24606;51.992;4.198;2023-03-01T18:11:21;20.70;53.00
38854;DHT22;24606;51.992;4.198;2023-03-01T18:16:24;20.80;52.70
38854;DHT22;24606;51.992;4.198;2023-03-01T18:21:27;20.80;52.80
38854;DHT22;24606;51.992;4.198;2023-03-01T18:26:29;20.80;53.00
38854;DHT22;24606;51.992;4.198;2023-03-01T18:31:32;20.60;53.40
38854;DHT22;24606;51.992;4.198;2023-03-01T18:36:34;20.50;53.70
38854;DHT22;24606;51.992;4.198;2023-03-01T18:41:36;20.40;53.90
38854;DHT22;24606;51.992;4.198;2023-03-01T18:46:40;20.20;54.10
38854;DHT22;24606;51.992;4.198;2023-03-01T18:51:42;20.10;54.40
38854;DHT22;24606;51.992;4.198;2023-03-01T18:56:44;20.00;54.50
38854;DHT22;24606;51.992;4.198;2023-03-01T19:01:47;20.00;54.40
38854;DHT22;24606;51.992;4.198;2023-03-01T19:06:49;19.90;54.80
38854;DHT22;24606;51.992;4.198;2023-03-01T19:11:51;19.90;55.00
38854;DHT22;24606;51.992;4.198;2023-03-01T19:16:59;19.80;55.00
38854;DHT22;24606;51.992;4.198;2023-03-01T19:22:01;19.60;55.10
38854;DHT22;24606;51.992;4.198;2023-03-01T19:27:03;19.60;55.40
38854;DHT22;24606;51.992;4.198;2023-03-01T19:32:06;20.00;56.10
38854;DHT22;24606;51.992;4.198;2023-03-01T19:37:08;20.40;55.40
38854;DHT22;24606;51.992;4.198;2023-03-01T19:42:10;20.30;54.70
38854;DHT22;24606;51.992;4.198;2023-03-01T19:47:13;20.20;54.80
38854;DHT22;24606;51.992;4.198;2023-03-01T19:52:15;20.20;54.80
38854;DHT22;24606;51.992;4.198;2023-03-01T19:57:17;20.10;54.90
38854;DHT22;24606;51.992;4.198;2023-03-01T20:02:22;20.20;54.80
38854;DHT22;24606;51.992;4.198;2023-03-01T20:07:24;20.10;54.70
38854;DHT22;24606;51.992;4.198;2023-03-01T20:12:26;20.10;54.70
38854;DHT22;24606;51.992;4.198;2023-03-01T20:17:29;20.10;54.70
38854;DHT22;24606;51.992;4.198;2023-03-01T20:22:31;20.10;54.80
38854;DHT22;24606;51.992;4.198;2023-03-01T20:27:33;20.10;54.90
38854;DHT22;24606;51.992;4.198;2023-03-01T20:32:36;20.00;54.80
38854;DHT22;24606;51.992;4.198;2023-03-01T20:37:38;20.00;54.80
38854;DHT22;24606;51.992;4.198;2023-03-01T20:42:40;20.00;54.80
38854;DHT22;24606;51.992;4.198;2023-03-01T20:47:43;20.00;54.80
38854;DHT22;24606;51.992;4.198;2023-03-01T20:52:45;19.90;54.70
38854;DHT22;24606;51.992;4.198;2023-03-01T20:57:47;19.90;54.80
38854;DHT22;24606;51.992;4.198;2023-03-01T21:02:50;19.90;54.80
38854;DHT22;24606;51.992;4.198;2023-03-01T21:07:52;19.80;54.80
38854;DHT22;24606;51.992;4.198;2023-03-01T21:12:54;19.80;54.80
38854;DHT22;24606;51.992;4.198;2023-03-01T21:17:57;19.80;54.70
38854;DHT22;24606;51.992;4.198;2023-03-01T21:22:59;19.80;54.80
38854;DHT22;24606;51.992;4.198;2023-03-01T21:28:01;19.70;54.80
38854;DHT22;24606;51.992;4.198;2023-03-01T21:33:05;19.70;54.80
38854;DHT22;24606;51.992;4.198;2023-03-01T21:38:07;19.70;54.70
38854;DHT22;24606;51.992;4.198;2023-03-01T21:43:09;19.60;55.00
38854;DHT22;24606;51.992;4.198;2023-03-01T21:48:12;19.60;55.10
38854;DHT22;24606;51.992;4.198;2023-03-01T21:53:14;19.50;55.10
38854;DHT22;24606;51.992;4.198;2023-03-01T21:58:16;19.50;55.20
38854;DHT22;24606;51.992;4.198;2023-03-01T22:03:19;19.40;55.30
38854;DHT22;24606;51.992;4.198;2023-03-01T22:08:21;19.30;55.30
38854;DHT22;24606;51.992;4.198;2023-03-01T22:13:23;19.30;55.50
38854;DHT22;24606;51.992;4.198;2023-03-01T22:18:26;19.20;55.40
38854;DHT22;24606;51.992;4.198;2023-03-01T22:23:29;19.10;55.50
38854;DHT22;24606;51.992;4.198;2023-03-01T22:28:31;19.00;55.70
38854;DHT22;24606;51.992;4.198;2023-03-01T22:33:34;19.00;55.60
38854;DHT22;24606;51.992;4.198;2023-03-01T22:38:37;19.00;55.70
38854;DHT22;24606;51.992;4.198;2023-03-01T22:43:40;18.90;55.70
38854;DHT22;24606;51.992;4.198;2023-03-01T22:48:43;18.90;55.70
38854;DHT22;24606;51.992;4.198;2023-03-01T22:53:46;18.80;55.70
38854;DHT22;24606;51.992;4.198;2023-03-01T22:58:48;18.80;55.70
38854;DHT22;24606;51.992;4.198;2023-03-01T23:03:51;18.80;55.80
38854;DHT22;24606;51.992;4.198;2023-03-01T23:08:55;18.80;55.70
38854;DHT22;24606;51.992;4.198;2023-03-01T23:13:58;18.70;55.80
38854;DHT22;24606;51.992;4.198;2023-03-01T23:19:01;18.70;55.70
38854;DHT22;24606;51.992;4.198;2023-03-01T23:24:04;18.60;55.70
38854;DHT22;24606;51.992;4.198;2023-03-01T23:29:07;18.60;55.70
38854;DHT22;24606;51.992;4.198;2023-03-01T23:34:10;18.50;55.70
38854;DHT22;24606;51.992;4.198;2023-03-01T23:39:13;18.50;55.70
38854;DHT22;24606;51.992;4.198;2023-03-01T23:44:15;18.50;55.90
38854;DHT22;24606;51.992;4.198;2023-03-01T23:49:21;18.50;56.10
38854;DHT22;24606;51.992;4.198;2023-03-01T23:54:24;18.40;56.10
38854;DHT22;24606;51.992;4.198;2023-03-01T23:59:26;18.30;56.00
